createdAt,value
2022-10-05T00:01:35.964Z,3.67
2022-10-05T00:04:40.542Z,3.60
2022-10-05T00:07:45.028Z,3.92
2022-10-05T00:10:50.558Z,4.47
2022-10-05T00:13:55.151Z,3.40
2022-10-05T00:17:01.832Z,4.05
2022-10-05T00:20:26.373Z,4.45
2022-10-05T00:23:32.453Z,4.13
2022-10-05T00:26:36.630Z,3.70
2022-10-05T00:29:42.673Z,4.05
2022-10-05T00:32:47.539Z,4.50
2022-10-05T00:35:52.142Z,5.55
2022-10-05T00:38:56.488Z,4.10
2022-10-05T00:42:25.294Z,5.15
2022-10-05T00:45:33.511Z,5.32
2022-10-05T00:48:48.232Z,4.30
2022-10-05T00:52:08.213Z,4.88
2022-10-05T00:55:30.137Z,5.70
2022-10-05T00:58:50.403Z,6.25
2022-10-05T01:02:09.300Z,5.40
2022-10-05T01:05:57.483Z,4.75
2022-10-05T01:09:35.043Z,4.93
2022-10-05T01:13:05.429Z,5.07
2022-10-05T01:16:45.088Z,5.53
2022-10-05T01:19:58.024Z,5.15
2022-10-05T01:23:31.094Z,5.45
2022-10-05T01:27:05.834Z,4.97
2022-10-05T01:30:14.088Z,6.03
2022-10-05T01:33:53.706Z,6.35
2022-10-05T01:37:03.627Z,5.40
2022-10-05T01:40:31.325Z,5.40
2022-10-05T01:43:48.355Z,6.10
2022-10-05T01:47:19.505Z,6.45
2022-10-05T01:51:00.952Z,6.30
2022-10-05T01:54:11.232Z,5.20
2022-10-05T01:57:40.892Z,7.13
2022-10-05T02:01:00.235Z,6.93
2022-10-05T02:04:42.789Z,7.22
2022-10-05T02:07:57.493Z,8.25
2022-10-05T02:11:13.298Z,6.82
2022-10-05T02:14:22.907Z,6.63
2022-10-05T02:17:38.688Z,6.38
2022-10-05T02:23:53.525Z,7.80
2022-10-05T02:26:59.364Z,6.07
2022-10-05T02:30:10.434Z,7.72
2022-10-05T02:33:32.478Z,7.60
2022-10-05T02:36:41.302Z,8.30
2022-10-05T02:40:27.052Z,8.45
2022-10-05T02:43:55.557Z,8.93
2022-10-05T02:47:33.504Z,7.30
2022-10-05T02:50:51.172Z,8.27
2022-10-05T02:54:29.804Z,7.60
2022-10-05T02:58:18.668Z,8.18
2022-10-05T03:01:43.965Z,7.63
2022-10-05T03:08:17.751Z,7.60
2022-10-05T03:11:37.792Z,8.18
2022-10-05T03:14:52.709Z,8.93
2022-10-05T03:18:12.267Z,9.10
2022-10-05T03:21:38.100Z,9.98
2022-10-05T03:25:24.239Z,7.80
2022-10-05T03:28:55.399Z,8.93
2022-10-05T03:32:27.222Z,7.97
2022-10-05T03:35:44.994Z,8.02
2022-10-05T03:39:02.910Z,8.98
2022-10-05T03:42:36.549Z,9.40
2022-10-05T03:46:00.268Z,8.77
2022-10-05T03:49:28.705Z,9.05
2022-10-05T03:53:04.381Z,8.65
2022-10-05T03:56:20.792Z,8.45
2022-10-05T03:59:58.604Z,8.18
2022-10-05T04:03:21.100Z,7.40
2022-10-05T04:06:38.580Z,9.45
2022-10-05T04:09:46.863Z,8.82
2022-10-05T04:13:18.803Z,9.68
2022-10-05T04:16:31.423Z,8.55
2022-10-05T04:20:23.878Z,9.45
2022-10-05T04:23:34.380Z,11.00
2022-10-05T04:27:00.382Z,9.50
2022-10-05T04:30:14.635Z,9.35
2022-10-05T04:33:20.761Z,8.82
2022-10-05T04:36:33.702Z,9.52
2022-10-05T04:40:04.298Z,10.07
2022-10-05T04:43:15.347Z,8.27
2022-10-05T04:46:29.340Z,10.85
2022-10-05T04:49:42.786Z,8.90
2022-10-05T04:53:30.944Z,8.93
2022-10-05T04:56:59.268Z,10.15
2022-10-05T05:00:28.620Z,10.02
2022-10-05T05:03:57.683Z,10.93
2022-10-05T05:07:25.113Z,9.70
2022-10-05T05:10:46.018Z,9.93
2022-10-05T05:14:34.240Z,12.63
2022-10-05T05:17:41.581Z,9.73
2022-10-05T05:21:08.365Z,10.48
2022-10-05T05:24:33.804Z,10.13
2022-10-05T05:27:56.695Z,8.95
2022-10-05T05:31:27.899Z,9.73
2022-10-05T05:34:58.977Z,10.52
2022-10-05T05:38:24.892Z,9.35
2022-10-05T05:41:39.361Z,8.45
2022-10-05T05:44:50.633Z,9.48
2022-10-05T05:48:00.101Z,9.27
2022-10-05T05:51:24.522Z,9.80
2022-10-05T05:54:41.451Z,10.40
2022-10-05T05:58:11.481Z,9.57
2022-10-05T06:01:33.665Z,10.48
2022-10-05T06:04:49.503Z,10.30
2022-10-05T06:07:57.178Z,9.98
2022-10-05T06:11:19.974Z,9.75
2022-10-05T06:14:29.489Z,8.95
2022-10-05T06:17:41.228Z,9.27
2022-10-05T06:20:59.854Z,10.45
2022-10-05T06:24:18.353Z,9.13
2022-10-05T06:27:27.201Z,10.52
2022-10-05T06:30:59.003Z,10.63
2022-10-05T06:34:25.845Z,8.75
2022-10-05T06:37:50.204Z,9.63
2022-10-05T06:41:29.586Z,9.90
2022-10-05T06:45:00.740Z,9.05
2022-10-05T06:48:36.878Z,9.05
2022-10-05T06:52:34.489Z,8.93
2022-10-05T06:56:02.412Z,8.52
2022-10-05T06:59:14.252Z,9.45
2022-10-05T07:02:45.467Z,8.27
2022-10-05T07:05:58.334Z,9.20
2022-10-05T07:09:24.200Z,10.60
2022-10-05T07:13:19.350Z,8.90
2022-10-05T07:16:46.255Z,8.90
2022-10-05T07:20:00.995Z,8.55
2022-10-05T07:23:27.102Z,8.50
2022-10-05T07:26:40.944Z,8.73
2022-10-05T07:29:50.044Z,10.07
2022-10-05T07:33:12.880Z,9.77
2022-10-05T07:37:00.623Z,8.93
2022-10-05T07:40:19.480Z,8.35
2022-10-05T07:44:01.466Z,8.55
2022-10-05T07:47:24.416Z,7.95
2022-10-05T07:50:38.347Z,10.95
2022-10-05T07:54:06.722Z,9.10
2022-10-05T07:57:32.456Z,8.50
2022-10-05T08:01:01.433Z,8.35
2022-10-05T08:04:30.559Z,8.35
2022-10-05T08:07:35.991Z,8.70
2022-10-05T08:10:59.465Z,8.18
2022-10-05T08:14:16.652Z,8.60
2022-10-05T08:17:44.830Z,9.02
2022-10-05T08:20:57.574Z,7.68
2022-10-05T08:24:23.003Z,8.25
2022-10-05T08:30:56.887Z,7.80
2022-10-05T08:34:20.053Z,7.55
2022-10-05T08:37:28.445Z,7.70
2022-10-05T08:40:55.195Z,7.88
2022-10-05T08:44:34.859Z,7.60
2022-10-05T08:48:08.225Z,7.18
2022-10-05T08:51:36.598Z,7.68
2022-10-05T08:55:09.885Z,8.02
2022-10-05T08:58:17.663Z,6.85
2022-10-05T09:01:47.484Z,8.48
2022-10-05T09:05:00.919Z,8.00
2022-10-05T09:08:05.711Z,7.40
2022-10-05T09:11:57.448Z,7.07
2022-10-05T09:15:39.523Z,7.20
2022-10-05T09:19:22.776Z,7.45
2022-10-05T09:22:56.490Z,6.45
2022-10-05T09:26:11.862Z,7.40
2022-10-05T09:29:53.808Z,7.75
2022-10-05T09:33:16.911Z,7.15
2022-10-05T09:36:28.219Z,6.30
2022-10-05T09:40:01.460Z,7.07
2022-10-05T09:43:30.465Z,7.82
2022-10-05T09:46:56.495Z,6.65
2022-10-05T09:50:16.188Z,6.35
2022-10-05T09:54:08.303Z,7.00
2022-10-05T09:57:21.928Z,6.18
2022-10-05T10:00:38.093Z,5.90
2022-10-05T10:03:57.339Z,6.18
2022-10-05T10:07:41.945Z,5.90
2022-10-05T10:11:04.868Z,6.05
2022-10-05T10:14:49.394Z,6.20
2022-10-05T10:18:17.938Z,6.90
2022-10-05T10:21:33.179Z,6.25
2022-10-05T10:24:49.241Z,6.10
2022-10-05T10:28:17.971Z,5.60
2022-10-05T10:31:50.607Z,5.82
2022-10-05T10:35:20.040Z,6.13
2022-10-05T10:38:28.602Z,5.53
2022-10-05T11:14:25.126Z,6.55
2022-10-05T11:17:59.912Z,7.20
2022-10-05T11:21:36.599Z,7.05
2022-10-05T11:24:50.149Z,7.10
2022-10-05T11:28:16.185Z,6.72
2022-10-05T11:31:43.473Z,6.15
2022-10-05T11:35:03.370Z,6.80
2022-10-05T11:38:46.069Z,6.32
2022-10-05T11:42:15.369Z,6.03
2022-10-05T11:45:21.951Z,6.18
2022-10-05T11:48:45.826Z,6.20
2022-10-05T11:52:06.452Z,6.65
2022-10-05T11:55:33.322Z,6.35
2022-10-05T11:59:02.822Z,6.93
2022-10-05T12:02:27.226Z,6.50
2022-10-05T12:06:04.230Z,6.20
2022-10-05T12:09:37.381Z,6.03
2022-10-05T12:12:49.972Z,6.15
2022-10-05T12:15:57.506Z,5.63
2022-10-05T12:19:13.956Z,6.60
2022-10-05T12:22:22.574Z,6.90
2022-10-05T12:25:45.284Z,5.60
2022-10-05T12:29:01.133Z,6.43
2022-10-05T12:32:05.174Z,6.78
2022-10-05T12:39:04.913Z,6.22
2022-10-05T12:42:50.519Z,6.00
2022-10-05T12:45:55.043Z,6.88
2022-10-05T12:52:20.951Z,6.05
2022-10-05T12:55:53.325Z,7.22
2022-10-05T12:59:19.613Z,6.72
2022-10-05T13:02:46.131Z,6.95
2022-10-05T13:06:04.159Z,6.35
2022-10-05T13:09:16.075Z,7.20
2022-10-05T13:12:29.765Z,6.28
2022-10-05T13:15:47.590Z,7.35
2022-10-05T13:19:17.078Z,7.70
2022-10-05T13:22:35.463Z,5.72
2022-10-05T13:25:53.538Z,7.18
2022-10-05T13:29:14.393Z,6.85
2022-10-05T13:32:23.950Z,8.05
2022-10-05T13:35:56.113Z,7.10
2022-10-05T13:39:11.074Z,8.88
2022-10-05T13:42:23.534Z,6.97
2022-10-05T13:45:37.644Z,7.30
2022-10-05T13:49:17.009Z,6.73
2022-10-05T13:52:39.118Z,7.50
2022-10-05T13:55:51.561Z,7.78
2022-10-05T13:59:22.057Z,8.05
2022-10-05T14:02:37.874Z,6.93
2022-10-05T14:05:57.439Z,7.00
2022-10-05T14:09:02.351Z,7.40
2022-10-05T14:12:14.464Z,6.72
2022-10-05T14:15:31.310Z,6.32
2022-10-05T14:18:38.294Z,6.22
2022-10-05T14:22:02.413Z,7.25
2022-10-05T14:25:10.194Z,7.85
2022-10-05T14:28:29.849Z,6.50
2022-10-05T14:31:36.967Z,6.20
2022-10-05T14:34:58.859Z,6.53
2022-10-05T14:38:18.678Z,6.47
2022-10-05T14:41:27.688Z,7.10
2022-10-05T14:47:49.059Z,6.20
2022-10-05T14:50:56.481Z,5.20
2022-10-05T14:54:14.850Z,7.35
2022-10-05T14:57:33.539Z,6.50
2022-10-05T15:00:56.850Z,5.82
2022-10-05T15:04:27.537Z,5.95
2022-10-05T15:07:38.487Z,5.80
2022-10-05T15:10:52.497Z,6.03
2022-10-05T15:13:57.992Z,5.97
2022-10-05T15:17:04.474Z,5.40
2022-10-05T15:20:29.112Z,5.50
2022-10-05T15:24:20.258Z,4.97
2022-10-05T15:27:27.679Z,5.07
2022-10-05T15:30:37.323Z,6.00
2022-10-05T15:33:53.721Z,4.93
2022-10-05T15:37:25.889Z,3.72
2022-10-05T15:40:35.799Z,3.90
2022-10-05T15:43:58.489Z,3.63
2022-10-05T15:47:24.480Z,3.80
2022-10-05T15:50:37.280Z,3.15
2022-10-05T15:54:21.861Z,3.50
2022-10-05T15:57:45.415Z,3.17
2022-10-05T16:00:58.871Z,3.55
2022-10-05T16:04:17.727Z,3.47
2022-10-05T16:07:46.390Z,2.70
2022-10-05T16:10:51.466Z,2.70
2022-10-05T16:14:21.046Z,3.05
2022-10-05T16:17:36.952Z,2.60
2022-10-05T16:21:00.568Z,2.90
2022-10-05T16:24:29.426Z,3.20
2022-10-05T16:27:57.361Z,3.35
2022-10-05T16:31:26.731Z,3.35
2022-10-05T16:34:30.971Z,2.85
2022-10-05T16:37:43.022Z,3.53
2022-10-05T16:41:13.052Z,3.78
2022-10-05T16:44:32.539Z,4.15
2022-10-05T16:48:01.133Z,4.68
2022-10-05T16:51:17.133Z,4.15
2022-10-05T16:54:39.052Z,3.83
2022-10-05T16:57:55.496Z,4.70
2022-10-05T17:01:41.924Z,4.80
2022-10-05T17:05:04.380Z,4.35
2022-10-05T17:08:21.474Z,5.03
2022-10-05T17:11:31.661Z,6.00
2022-10-05T17:15:00.747Z,4.90
2022-10-05T17:18:42.265Z,6.55
2022-10-05T17:22:11.501Z,6.75
2022-10-05T17:25:33.521Z,7.68
2022-10-05T17:28:37.706Z,5.63
2022-10-05T17:32:06.228Z,6.00
2022-10-05T17:35:35.137Z,6.10
2022-10-05T17:39:12.166Z,6.28
2022-10-05T17:42:26.104Z,5.68
2022-10-05T17:45:33.393Z,5.82
2022-10-05T17:48:44.098Z,4.40
2022-10-05T17:52:06.711Z,4.68
2022-10-05T17:55:28.517Z,4.35
2022-10-05T17:58:32.739Z,4.20
2022-10-05T18:01:41.430Z,4.82
2022-10-05T18:05:06.631Z,3.70
2022-10-05T18:08:16.347Z,4.15
2022-10-05T18:11:35.278Z,3.47
2022-10-05T18:14:55.241Z,3.88
2022-10-05T18:18:32.645Z,4.22
2022-10-05T18:21:38.760Z,4.13
2022-10-05T18:25:09.143Z,3.90
2022-10-05T18:28:27.786Z,3.47
2022-10-05T18:31:37.027Z,3.78
2022-10-05T18:34:54.662Z,4.10
2022-10-05T18:38:31.096Z,3.85
2022-10-05T18:41:45.688Z,4.32
2022-10-05T18:44:58.186Z,3.87
2022-10-05T18:48:30.471Z,4.22
2022-10-05T18:51:57.893Z,4.35
2022-10-05T18:55:20.549Z,4.60
2022-10-05T18:58:57.048Z,4.32
2022-10-05T19:02:14.945Z,3.95
2022-10-05T19:05:48.047Z,3.80
2022-10-05T19:09:06.844Z,4.43
2022-10-05T19:12:29.786Z,3.65
2022-10-05T19:16:01.273Z,3.88
2022-10-05T19:19:32.407Z,4.20
2022-10-05T19:22:52.978Z,3.95
2022-10-05T19:26:18.849Z,4.47
2022-10-05T19:29:33.418Z,4.03
2022-10-05T19:32:49.421Z,4.32
2022-10-05T19:36:25.228Z,4.10
2022-10-05T19:39:37.162Z,4.53
2022-10-05T19:42:50.021Z,4.15
2022-10-05T19:46:20.412Z,3.78
2022-10-05T19:49:56.794Z,3.25
2022-10-05T19:53:24.149Z,3.63
2022-10-05T19:56:33.897Z,3.10
2022-10-05T19:59:40.729Z,3.83
2022-10-05T20:02:45.368Z,3.40
2022-10-05T20:05:50.605Z,3.17
2022-10-05T20:09:00.427Z,3.10
2022-10-05T20:12:05.311Z,3.30
2022-10-05T20:19:18.681Z,3.22
2022-10-05T20:22:28.116Z,3.20
2022-10-05T20:25:32.693Z,3.10
2022-10-05T20:28:37.431Z,3.15
2022-10-05T20:31:43.309Z,3.80
2022-10-05T20:34:48.449Z,4.53
2022-10-05T20:37:53.691Z,3.90
2022-10-05T20:40:57.984Z,5.38
2022-10-05T20:44:02.535Z,3.50
2022-10-05T20:47:09.605Z,4.00
2022-10-05T20:50:14.986Z,3.30
2022-10-05T20:53:19.290Z,4.03
2022-10-05T20:56:23.685Z,3.30
2022-10-05T21:02:32.903Z,3.10
2022-10-05T21:05:37.835Z,3.67
2022-10-05T21:11:48.814Z,2.92
2022-10-05T21:14:53.261Z,2.90
2022-10-05T21:17:57.437Z,3.35
2022-10-05T21:21:02.434Z,3.80
2022-10-05T21:24:07.731Z,3.35
2022-10-05T21:27:12.086Z,3.90
2022-10-05T21:30:16.603Z,3.80
2022-10-05T21:33:21.624Z,4.10
2022-10-05T21:36:25.779Z,3.22
2022-10-05T21:39:30.264Z,3.78
2022-10-05T21:42:34.814Z,3.45
2022-10-05T21:45:39.429Z,3.63
2022-10-05T21:48:44.470Z,3.17
2022-10-05T21:51:48.608Z,2.90
2022-10-05T21:54:52.926Z,3.63
2022-10-05T21:57:58.084Z,3.30
2022-10-05T22:01:03.133Z,3.13
2022-10-05T22:04:08.126Z,3.35
2022-10-05T22:07:18.614Z,2.90
2022-10-05T22:10:22.799Z,3.13
2022-10-05T22:13:38.873Z,3.22
2022-10-05T22:16:44.642Z,3.42
2022-10-05T22:19:49.803Z,2.85
2022-10-05T22:22:54.235Z,3.25
2022-10-05T22:25:58.747Z,3.15
2022-10-05T22:29:03.790Z,3.55
2022-10-05T22:32:08.771Z,3.40
2022-10-05T22:35:13.469Z,2.72
2022-10-05T22:38:18.096Z,3.20
2022-10-05T22:41:22.673Z,3.78
2022-10-05T22:44:27.001Z,2.97
2022-10-05T22:47:31.223Z,3.38
2022-10-05T22:50:35.679Z,3.75
2022-10-05T22:53:40.099Z,3.25
2022-10-05T22:56:44.589Z,2.90
2022-10-05T22:59:48.979Z,3.22
2022-10-05T23:02:53.273Z,3.22
2022-10-05T23:06:00.162Z,3.70
2022-10-05T23:09:04.666Z,3.25
2022-10-05T23:12:10.155Z,3.85
2022-10-05T23:15:14.533Z,3.30
2022-10-05T23:18:18.754Z,3.67
2022-10-05T23:21:25.142Z,3.33
2022-10-05T23:24:29.349Z,3.28
2022-10-05T23:27:38.954Z,3.10
2022-10-05T23:30:43.129Z,3.20
2022-10-05T23:36:51.986Z,3.80
2022-10-05T23:39:56.440Z,2.75
2022-10-05T23:43:00.857Z,3.15
2022-10-05T23:46:06.953Z,3.30
2022-10-05T23:49:11.558Z,4.40
2022-10-05T23:52:15.773Z,3.45
2022-10-05T23:58:24.792Z,4.05
